Time;durP1;ratioP1;P1;durP2;ratioP2;P2;SDS_P1;SDS_P2;PMS_P1;PMS_P2;Temp;Humidity;BMP_temperature;BMP_pressure;BME280_temperature;BME280_humidity;BME280_pressure;Samples;Min_cycle;Max_cycle;Signal;HPM_P1;HPM_P2
2023/10/13 00:01:59;;;;;;;93.80;38.30;;;;;;;;;;5064200;28;20033;-76
2023/10/13 00:04:26;;;;;;;79.80;36.38;;;;;;;;;;5057975;28;20430;-77
2023/10/13 00:06:53;;;;;;;84.32;36.45;;;;;;;;;;5076484;28;20538;-76
2023/10/13 00:09:24;;;;;;;83.05;36.85;;;;;;;;;;5067752;28;20070;-76
2023/10/13 00:11:52;;;;;;;73.15;34.60;;;;;;;;;;5069195;28;20024;-75
2023/10/13 00:14:18;;;;;;;84.80;35.67;;;;;;;;;;5066595;28;20033;-76
2023/10/13 00:19:46;;;;;;;78.82;34.03;;;;;;;;;;5066722;28;20051;-75
2023/10/13 00:22:15;;;;;;;76.93;33.45;;;;;;;;;;5064054;28;20127;-76
2023/10/13 00:24:50;;;;;;;77.60;34.38;;;;;;;;;;5064146;28;20282;-76
2023/10/13 00:27:28;;;;;;;290.38;182.93;;;;;;;;;;5059564;28;20025;-77
2023/10/13 00:30:16;;;;;;;80.97;39.85;;;;;;;;;;5062829;28;20494;-77
2023/10/13 00:32:42;;;;;;;71.05;31.20;;;;;;;;;;5054583;28;20654;-77
2023/10/13 00:35:57;;;;;;;78.28;32.38;;;;;;;;;;5072769;28;20081;-78
2023/10/13 00:37:59;;;;;;;78.68;32.10;;;;;;;;;;5063416;28;20048;-80
2023/10/13 00:45:43;;;;;;;68.57;30.23;;;;;;;;;;5071889;28;20102;-76
2023/10/13 00:48:12;;;;;;;126.93;64.82;;;;;;;;;;5072904;28;20111;-75
2023/10/13 00:50:38;;;;;;;110.20;54.55;;;;;;;;;;5069744;28;20113;-77
2023/10/13 00:53:04;;;;;;;68.95;29.23;;;;;;;;;;5067901;28;20020;-76
2023/10/13 00:55:33;;;;;;;55.30;25.88;;;;;;;;;;5071821;28;20070;-80
2023/10/13 00:58:03;;;;;;;55.90;26.80;;;;;;;;;;5063393;28;20162;-79
2023/10/13 01:00:30;;;;;;;60.03;25.83;;;;;;;;;;5078002;28;20493;-80
2023/10/13 01:02:56;;;;;;;49.88;23.02;;;;;;;;;;5066062;28;20063;-80
2023/10/13 01:05:26;;;;;;;51.58;22.67;;;;;;;;;;5067436;28;20115;-79
2023/10/13 01:07:56;;;;;;;48.13;22.98;;;;;;;;;;5056065;28;20486;-79
2023/10/13 01:10:32;;;;;;;51.17;21.10;;;;;;;;;;5060941;28;20069;-79
2023/10/13 01:13:02;;;;;;;40.22;20.40;;;;;;;;;;5072876;28;20036;-80
2023/10/13 01:15:33;;;;;;;55.33;21.83;;;;;;;;;;5069559;28;20072;-78
2023/10/13 01:18:16;;;;;;;49.95;19.42;;;;;;;;;;5060175;28;20075;-79
2023/10/13 01:20:45;;;;;;;45.50;18.73;;;;;;;;;;5071355;28;20099;-79
2023/10/13 01:23:37;;;;;;;51.15;21.63;;;;;;;;;;5071181;28;20036;-79
2023/10/13 01:26:05;;;;;;;49.03;27.55;;;;;;;;;;5066488;28;20037;-80
2023/10/13 01:28:44;;;;;;;63.00;34.15;;;;;;;;;;5078257;28;20081;-78
2023/10/13 01:31:11;;;;;;;44.10;17.95;;;;;;;;;;5083386;28;20477;-80
2023/10/13 01:33:37;;;;;;;37.58;17.67;;;;;;;;;;5072028;28;20033;-80
2023/10/13 01:36:06;;;;;;;33.22;18.15;;;;;;;;;;5083426;28;20320;-79
2023/10/13 01:38:33;;;;;;;36.30;16.08;;;;;;;;;;5067307;28;20036;-79
2023/10/13 01:41:00;;;;;;;32.55;15.73;;;;;;;;;;5065787;28;20079;-78
2023/10/13 01:43:26;;;;;;;30.50;13.95;;;;;;;;;;5071302;28;20024;-79
2023/10/13 01:45:53;;;;;;;29.85;14.70;;;;;;;;;;5070358;28;20398;-78
2023/10/13 01:48:21;;;;;;;27.90;14.35;;;;;;;;;;5070656;28;20039;-78
2023/10/13 01:50:48;;;;;;;29.52;12.95;;;;;;;;;;5070424;28;20039;-78
2023/10/13 01:53:17;;;;;;;24.13;13.50;;;;;;;;;;5070885;28;20024;-78
2023/10/13 01:55:44;;;;;;;24.10;14.15;;;;;;;;;;5071443;28;20067;-78
2023/10/13 01:58:17;;;;;;;29.20;14.70;;;;;;;;;;5070611;28;20081;-78
2023/10/13 02:00:43;;;;;;;36.00;16.10;;;;;;;;;;5070639;28;20028;-78
2023/10/13 02:03:15;;;;;;;34.00;15.88;;;;;;;;;;5072184;28;20055;-78
2023/10/13 02:05:46;;;;;;;35.63;16.10;;;;;;;;;;5070729;28;20024;-78
2023/10/13 02:08:17;;;;;;;37.83;15.73;;;;;;;;;;5069689;28;20417;-80
2023/10/13 02:10:44;;;;;;;30.52;16.75;;;;;;;;;;5067726;28;20154;-80
2023/10/13 02:13:22;;;;;;;38.13;17.23;;;;;;;;;;5068006;28;20052;-80
2023/10/13 02:15:48;;;;;;;34.97;18.33;;;;;;;;;;5071220;28;20071;-78
2023/10/13 02:18:26;;;;;;;38.10;19.55;;;;;;;;;;5067345;28;20021;-79
2023/10/13 02:20:56;;;;;;;41.78;19.52;;;;;;;;;;5061412;28;20370;-78
2023/10/13 02:23:24;;;;;;;46.13;19.02;;;;;;;;;;5074612;28;20032;-79
2023/10/13 02:26:00;;;;;;;41.45;19.75;;;;;;;;;;5072252;28;20048;-79
2023/10/13 02:28:28;;;;;;;37.72;18.13;;;;;;;;;;5068174;28;20063;-79
2023/10/13 02:30:57;;;;;;;37.63;19.30;;;;;;;;;;5064073;28;20028;-78
2023/10/13 02:33:29;;;;;;;47.88;20.92;;;;;;;;;;5070146;28;20043;-79
2023/10/13 02:35:55;;;;;;;;;;;;;;;;;;5064316;28;20044;-79
2023/10/13 02:38:33;;;;;;;52.92;25.20;;;;;;;;;;5061896;28;19966;-79
2023/10/13 02:41:05;;;;;;;56.95;26.80;;;;;;;;;;5069913;28;20049;-80
2023/10/13 02:43:33;;;;;;;57.20;23.90;;;;;;;;;;5067847;28;20382;-80
2023/10/13 02:45:59;;;;;;;58.08;25.02;;;;;;;;;;5068404;28;20036;-80
2023/10/13 02:48:30;;;;;;;59.83;26.40;;;;;;;;;;5069020;28;20043;-81
2023/10/13 02:51:06;;;;;;;56.15;24.55;;;;;;;;;;5069182;28;20510;-80
2023/10/13 02:53:33;;;;;;;58.28;28.65;;;;;;;;;;5065236;28;20032;-81
2023/10/13 02:56:05;;;;;;;66.90;26.75;;;;;;;;;;5071778;28;20044;-80
2023/10/13 02:58:43;;;;;;;50.28;25.95;;;;;;;;;;5069486;28;20074;-81
2023/10/13 03:01:19;;;;;;;59.63;26.52;;;;;;;;;;5067001;28;20051;-80
2023/10/13 03:03:58;;;;;;;60.75;25.63;;;;;;;;;;5058484;28;20097;-81
2023/10/13 03:06:32;;;;;;;45.22;22.20;;;;;;;;;;5082344;28;20083;-81
2023/10/13 03:09:00;;;;;;;51.17;21.75;;;;;;;;;;5068902;28;20076;-81
2023/10/13 03:11:32;;;;;;;48.17;22.08;;;;;;;;;;5068874;28;20112;-80
2023/10/13 03:13:58;;;;;;;34.73;19.10;;;;;;;;;;5070116;28;20033;-80
2023/10/13 03:16:24;;;;;;;39.70;19.08;;;;;;;;;;5070669;28;20048;-80
2023/10/13 03:18:56;;;;;;;33.90;17.30;;;;;;;;;;5070531;28;20403;-80
2023/10/13 03:21:31;;;;;;;;;;;;;;;;;;5067200;28;20079;-81
2023/10/13 03:24:04;;;;;;;33.90;16.92;;;;;;;;;;5069043;28;20368;-81
2023/10/13 03:26:44;;;;;;;31.95;17.05;;;;;;;;;;5063006;28;20063;-81
2023/10/13 03:29:13;;;;;;;38.17;16.42;;;;;;;;;;5070854;28;20051;-81
2023/10/13 03:31:39;;;;;;;30.77;16.05;;;;;;;;;;5068735;28;20498;-80
2023/10/13 03:34:09;;;;;;;34.00;14.75;;;;;;;;;;5075119;28;20028;-79
2023/10/13 03:39:27;;;;;;;29.00;15.88;;;;;;;;;;5068327;28;20060;-80
2023/10/13 03:41:53;;;;;;;;;;;;;;;;;;5067083;28;20047;-79
2023/10/13 03:44:20;;;;;;;28.25;16.55;;;;;;;;;;5069280;28;19915;-80
2023/10/13 03:46:49;;;;;;;31.80;17.58;;;;;;;;;;5068446;28;20032;-81
2023/10/13 03:49:21;;;;;;;39.78;19.40;;;;;;;;;;5058400;28;20029;-82
2023/10/13 03:51:47;;;;;;;39.77;20.90;;;;;;;;;;5068887;28;20045;-81
2023/10/13 03:54:16;;;;;;;33.63;19.90;;;;;;;;;;5069926;28;20314;-80
2023/10/13 03:56:44;;;;;;;38.00;19.15;;;;;;;;;;5068308;28;20067;-80
2023/10/13 03:59:17;;;;;;;32.65;18.98;;;;;;;;;;5067898;28;20025;-81
2023/10/13 04:01:59;;;;;;;38.33;19.70;;;;;;;;;;5071361;28;20032;-81
2023/10/13 04:04:47;;;;;;;41.72;20.23;;;;;;;;;;5068661;28;20044;-81
2023/10/13 04:07:26;;;;;;;37.10;20.17;;;;;;;;;;5066647;28;20089;-81
2023/10/13 04:10:19;;;;;;;38.53;20.60;;;;;;;;;;5055456;28;20486;-81
2023/10/13 04:15:23;;;;;;;38.45;20.48;;;;;;;;;;5068426;28;20508;-81
2023/10/13 04:17:50;;;;;;;42.10;21.60;;;;;;;;;;5043623;28;20374;-80
2023/10/13 04:20:32;;;;;;;43.30;21.58;;;;;;;;;;5059548;28;20025;-81
2023/10/13 04:25:35;;;;;;;45.70;22.85;;;;;;;;;;5071095;28;20032;-80
2023/10/13 04:30:53;;;;;;;44.05;22.48;;;;;;;;;;5065024;28;20059;-81
2023/10/13 04:36:14;;;;;;;38.03;21.07;;;;;;;;;;5071986;28;20123;-80
2023/10/13 04:38:56;;;;;;;50.58;23.38;;;;;;;;;;5061767;28;20298;-79
2023/10/13 04:41:23;;;;;;;;;;;;;;;;;;5072370;28;20028;-83
2023/10/13 04:44:05;;;;;;;42.65;20.50;;;;;;;;;;5069062;28;19912;-80
2023/10/13 04:49:29;;;;;;;46.65;21.77;;;;;;;;;;5074311;28;20052;-80
2023/10/13 04:52:00;;;;;;;45.70;20.92;;;;;;;;;;5070955;28;20035;-80
2023/10/13 04:54:34;;;;;;;42.85;19.67;;;;;;;;;;5062916;28;20028;-82
2023/10/13 05:49:29;;;;;;;12.68;9.07;;;;;;;;;;5069486;28;20036;-87
2023/10/13 05:52:06;;;;;;;16.38;8.63;;;;;;;;;;5068214;28;20056;-79
2023/10/13 06:30:33;;;;;;;10.25;6.20;;;;;;;;;;5068457;28;20086;-77
2023/10/13 06:33:01;;;;;;;10.98;6.97;;;;;;;;;;5071441;28;20033;-75
2023/10/13 06:35:27;;;;;;;8.80;6.47;;;;;;;;;;5064976;28;20036;-75
2023/10/13 06:37:53;;;;;;;10.80;8.15;;;;;;;;;;5068666;28;20035;-77
2023/10/13 06:40:25;;;;;;;10.73;7.30;;;;;;;;;;5069795;28;20044;-77
2023/10/13 06:42:53;;;;;;;13.25;7.00;;;;;;;;;;5065421;28;20039;-77
2023/10/13 06:45:20;;;;;;;9.27;5.93;;;;;;;;;;5065002;28;20036;-77
2023/10/13 06:47:48;;;;;;;10.75;5.95;;;;;;;;;;5069187;28;20113;-77
2023/10/13 06:50:19;;;;;;;11.52;5.30;;;;;;;;;;5065568;28;20044;-77
2023/10/13 06:52:54;;;;;;;13.23;5.97;;;;;;;;;;5060890;28;20028;-77
2023/10/13 06:55:27;;;;;;;11.32;4.63;;;;;;;;;;5059814;28;20171;-76
2023/10/13 06:57:53;;;;;;;11.82;5.75;;;;;;;;;;5065502;28;20550;-75
2023/10/13 07:00:19;;;;;;;12.10;4.75;;;;;;;;;;5067460;28;20591;-77
2023/10/13 07:02:52;;;;;;;11.77;4.82;;;;;;;;;;5067587;28;20398;-76
2023/10/13 07:05:19;;;;;;;14.88;4.75;;;;;;;;;;5066531;28;20028;-77
2023/10/13 07:07:45;;;;;;;9.73;4.57;;;;;;;;;;5067348;28;20090;-76
2023/10/13 07:10:12;;;;;;;9.05;4.13;;;;;;;;;;5063208;28;20111;-77
2023/10/13 07:12:43;;;;;;;12.45;4.70;;;;;;;;;;5068939;28;20386;-77
2023/10/13 07:17:45;;;;;;;11.40;4.07;;;;;;;;;;5057198;28;20040;-78
2023/10/13 07:20:15;;;;;;;13.23;4.40;;;;;;;;;;5067657;28;20074;-81
2023/10/13 07:22:57;;;;;;;11.35;4.47;;;;;;;;;;5060033;28;20103;-80
2023/10/13 07:25:25;;;;;;;15.80;5.60;;;;;;;;;;5063459;28;20155;-81
2023/10/13 07:27:53;;;;;;;12.65;4.82;;;;;;;;;;5067766;28;20032;-77
2023/10/13 07:30:19;;;;;;;15.13;4.53;;;;;;;;;;5061912;28;20048;-77
2023/10/13 07:32:46;;;;;;;14.85;4.90;;;;;;;;;;5061646;28;20399;-76
2023/10/13 07:35:15;;;;;;;16.98;5.07;;;;;;;;;;5066333;28;20029;-76
2023/10/13 07:37:42;;;;;;;13.07;5.65;;;;;;;;;;5069360;28;20051;-77
2023/10/13 07:40:51;;;;;;;15.90;4.78;;;;;;;;;;5066986;28;20520;-78
2023/10/13 07:43:03;;;;;;;17.08;5.10;;;;;;;;;;5061819;28;20484;-76
2023/10/13 07:45:40;;;;;;;12.00;4.32;;;;;;;;;;5062940;28;20479;-78
2023/10/13 07:48:19;;;;;;;18.08;6.38;;;;;;;;;;5071057;28;20044;-78
2023/10/13 07:50:45;;;;;;;20.50;4.90;;;;;;;;;;5065319;28;20032;-77
2023/10/13 07:53:23;;;;;;;22.38;5.75;;;;;;;;;;5084711;28;20037;-78
2023/10/13 07:55:56;;;;;;;24.08;5.80;;;;;;;;;;5066998;28;20048;-76
2023/10/13 07:58:26;;;;;;;26.08;6.80;;;;;;;;;;5065083;28;20024;-78
2023/10/13 08:01:06;;;;;;;20.63;5.90;;;;;;;;;;5078036;28;20064;-77
2023/10/13 08:03:45;;;;;;;15.80;6.10;;;;;;;;;;5063303;28;20067;-77
2023/10/13 08:08:43;;;;;;;21.95;8.02;;;;;;;;;;5066902;28;20033;-85
2023/10/13 08:13:53;;;;;;;28.60;7.60;;;;;;;;;;5058574;28;20355;-84
2023/10/13 08:16:22;;;;;;;24.35;7.32;;;;;;;;;;5069056;28;20081;-85
2023/10/13 08:18:51;;;;;;;17.45;6.03;;;;;;;;;;5069307;28;20047;-85
2023/10/13 08:21:22;;;;;;;18.23;6.60;;;;;;;;;;5069853;28;20474;-86
2023/10/13 08:23:59;;;;;;;22.20;6.80;;;;;;;;;;5069977;28;20545;-83
2023/10/13 08:26:38;;;;;;;23.75;7.25;;;;;;;;;;5069927;28;20060;-85
2023/10/13 08:37:28;;;;;;;16.83;6.45;;;;;;;;;;5057531;28;20465;-86
2023/10/13 08:39:58;;;;;;;16.52;6.30;;;;;;;;;;5070956;28;20052;-85
2023/10/13 08:53:31;;;;;;;20.70;7.07;;;;;;;;;;5050785;28;20469;-85
2023/10/13 08:56:14;;;;;;;16.30;6.97;;;;;;;;;;5065104;28;20047;-85
2023/10/13 09:01:48;;;;;;;18.13;7.10;;;;;;;;;;5069971;28;20116;-86
2023/10/13 09:06:47;;;;;;;21.40;8.77;;;;;;;;;;5069660;28;20051;-86
2023/10/13 09:12:09;;;;;;;17.90;7.65;;;;;;;;;;5072767;28;20043;-85
2023/10/13 09:15:59;;;;;;;20.05;7.93;;;;;;;;;;5073811;28;20082;-85
2023/10/13 09:18:12;;;;;;;15.80;8.05;;;;;;;;;;5063690;28;20048;-84
2023/10/13 09:23:09;;;;;;;15.65;7.90;;;;;;;;;;5064304;28;20037;-85
2023/10/13 09:25:53;;;;;;;19.02;7.22;;;;;;;;;;5072988;28;20099;-85
2023/10/13 09:28:21;;;;;;;18.23;7.38;;;;;;;;;;5055795;28;20037;-87
2023/10/13 09:30:48;;;;;;;18.52;7.15;;;;;;;;;;5073414;28;20053;-84
2023/10/13 09:33:28;;;;;;;23.38;6.68;;;;;;;;;;5067364;28;20028;-76
2023/10/13 09:35:54;;;;;;;17.17;7.72;;;;;;;;;;5067601;28;20037;-74
2023/10/13 09:38:20;;;;;;;15.45;6.55;;;;;;;;;;5070991;28;20065;-73
2023/10/13 09:40:50;;;;;;;14.60;7.32;;;;;;;;;;5065806;28;20053;-73
2023/10/13 09:43:19;;;;;;;20.52;6.45;;;;;;;;;;5071160;28;20074;-73
2023/10/13 09:48:34;;;;;;;16.35;6.00;;;;;;;;;;5052441;28;20032;-74
2023/10/13 09:51:08;;;;;;;16.05;5.72;;;;;;;;;;5058510;28;20040;-75
2023/10/13 09:53:37;;;;;;;16.05;5.47;;;;;;;;;;5070589;28;20115;-76
2023/10/13 09:56:11;;;;;;;13.68;5.53;;;;;;;;;;5063990;28;20401;-76
2023/10/13 09:58:47;;;;;;;18.20;5.55;;;;;;;;;;5069132;28;20028;-76
2023/10/13 10:01:21;;;;;;;17.33;4.85;;;;;;;;;;5068387;28;20036;-78
2023/10/13 10:04:07;;;;;;;19.70;6.05;;;;;;;;;;5065976;28;20436;-75
2023/10/13 10:06:39;;;;;;;12.05;5.00;;;;;;;;;;5066931;28;20059;-75
2023/10/13 10:09:12;;;;;;;19.17;5.85;;;;;;;;;;5068279;28;20090;-76
2023/10/13 10:11:40;;;;;;;20.05;5.35;;;;;;;;;;5067810;28;20111;-76
2023/10/13 10:14:30;;;;;;;18.40;5.95;;;;;;;;;;5066029;28;20058;-75
2023/10/13 10:17:09;;;;;;;21.58;5.63;;;;;;;;;;5069492;28;20036;-77
2023/10/13 10:19:55;;;;;;;21.10;5.03;;;;;;;;;;5069016;28;20071;-77
2023/10/13 10:22:28;;;;;;;13.50;3.95;;;;;;;;;;5071245;28;20032;-76
2023/10/13 10:24:59;;;;;;;17.60;4.65;;;;;;;;;;5066120;28;20499;-76
2023/10/13 10:27:25;;;;;;;14.35;4.95;;;;;;;;;;5065123;28;20028;-78
2023/10/13 10:29:55;;;;;;;16.83;6.00;;;;;;;;;;5067376;28;20467;-77
2023/10/13 10:32:21;;;;;;;24.27;8.05;;;;;;;;;;5060195;28;20032;-78
2023/10/13 10:34:48;;;;;;;17.45;5.47;;;;;;;;;;5063570;28;20540;-78
2023/10/13 10:37:15;;;;;;;13.30;4.60;;;;;;;;;;5064043;28;20059;-80
2023/10/13 10:39:45;;;;;;;17.38;5.00;;;;;;;;;;5067508;28;20547;-76
2023/10/13 10:42:23;;;;;;;21.30;6.32;;;;;;;;;;5069686;28;20041;-75
2023/10/13 10:44:55;;;;;;;18.75;5.78;;;;;;;;;;5067726;28;20023;-76
2023/10/13 10:47:30;;;;;;;16.85;6.05;;;;;;;;;;5054544;28;20120;-76
2023/10/13 10:49:59;;;;;;;18.23;5.05;;;;;;;;;;5062395;28;20064;-78
2023/10/13 10:52:27;;;;;;;14.80;5.50;;;;;;;;;;5071919;28;20052;-77
2023/10/13 10:55:02;;;;;;;19.17;5.60;;;;;;;;;;5071494;28;20103;-76
2023/10/13 10:57:36;;;;;;;13.75;4.97;;;;;;;;;;5086589;28;20052;-78
2023/10/13 11:00:11;;;;;;;21.58;5.55;;;;;;;;;;5071800;28;20025;-77
2023/10/13 11:02:38;;;;;;;22.52;6.07;;;;;;;;;;5068856;28;20021;-76
2023/10/13 11:05:06;;;;;;;18.88;5.72;;;;;;;;;;5067551;28;20055;-80
2023/10/13 11:07:34;;;;;;;15.93;5.68;;;;;;;;;;5065301;28;20612;-76
2023/10/13 11:10:17;;;;;;;15.73;4.82;;;;;;;;;;5069280;28;20478;-76
2023/10/13 11:12:54;;;;;;;12.80;5.65;;;;;;;;;;5063243;28;20504;-75
2023/10/13 11:15:24;;;;;;;16.55;4.97;;;;;;;;;;5072518;28;20035;-75
2023/10/13 11:17:54;;;;;;;18.13;6.07;;;;;;;;;;5066805;28;20047;-75
2023/10/13 11:20:43;;;;;;;12.95;5.07;;;;;;;;;;5066585;28;20054;-75
2023/10/13 11:23:13;;;;;;;17.25;5.38;;;;;;;;;;5067089;28;20032;-78
2023/10/13 11:25:39;;;;;;;16.45;5.55;;;;;;;;;;5078900;28;20039;-78
2023/10/13 11:28:19;;;;;;;23.13;6.95;;;;;;;;;;5072602;28;20036;-80
2023/10/13 11:30:49;;;;;;;24.45;6.70;;;;;;;;;;5062637;28;20470;-80
2023/10/13 11:33:18;;;;;;;27.67;7.22;;;;;;;;;;5065371;28;20063;-81
2023/10/13 11:43:35;;;;;;;18.10;6.47;;;;;;;;;;5065938;28;19916;-80
2023/10/13 11:48:54;;;;;;;23.17;6.38;;;;;;;;;;5061813;28;20107;-80
2023/10/13 11:51:31;;;;;;;21.20;5.93;;;;;;;;;;5063994;28;20103;-79
2023/10/13 11:53:58;;;;;;;28.13;6.47;;;;;;;;;;5064961;28;20029;-79
2023/10/13 11:56:24;;;;;;;28.92;6.00;;;;;;;;;;5064226;28;20098;-79
2023/10/13 11:58:51;;;;;;;22.50;6.65;;;;;;;;;;5063770;28;20067;-79
2023/10/13 12:01:21;;;;;;;18.88;5.57;;;;;;;;;;5065679;28;20397;-78
2023/10/13 12:09:31;;;;;;;19.52;5.68;;;;;;;;;;5063841;28;20029;-79
2023/10/13 12:12:00;;;;;;;21.75;5.90;;;;;;;;;;5063608;28;20033;-79
2023/10/13 12:14:36;;;;;;;14.98;5.40;;;;;;;;;;5062878;28;20036;-78
2023/10/13 12:17:04;;;;;;;21.13;5.45;;;;;;;;;;5065183;28;20064;-77
2023/10/13 12:19:30;;;;;;;16.35;5.72;;;;;;;;;;5061003;28;20115;-79
2023/10/13 12:22:04;;;;;;;25.40;6.20;;;;;;;;;;5076538;28;20037;-78
2023/10/13 12:27:20;;;;;;;14.13;5.75;;;;;;;;;;5062264;28;20119;-79
2023/10/13 12:29:56;;;;;;;19.00;6.22;;;;;;;;;;5061528;28;20047;-78
2023/10/13 12:32:25;;;;;;;24.40;6.78;;;;;;;;;;5064134;28;20024;-79
2023/10/13 12:37:49;;;;;;;23.75;6.32;;;;;;;;;;5065646;28;20123;-79
2023/10/13 12:53:54;;;;;;;23.48;6.60;;;;;;;;;;5065945;28;20052;-78
2023/10/13 12:56:25;;;;;;;25.67;6.68;;;;;;;;;;5067610;28;20047;-78
2023/10/13 12:58:52;;;;;;;22.52;6.32;;;;;;;;;;5066614;28;20111;-78
2023/10/13 13:01:22;;;;;;;25.65;6.18;;;;;;;;;;5070431;28;20039;-78
2023/10/13 13:03:49;;;;;;;20.02;6.53;;;;;;;;;;5067726;28;20065;-79
2023/10/13 13:06:24;;;;;;;17.08;7.28;;;;;;;;;;5067440;28;20037;-78
2023/10/13 13:08:50;;;;;;;21.70;7.55;;;;;;;;;;5063180;28;20295;-77
2023/10/13 13:11:16;;;;;;;22.58;6.53;;;;;;;;;;5067000;28;20052;-78
2023/10/13 13:13:42;;;;;;;13.43;6.13;;;;;;;;;;5068894;28;20037;-77
2023/10/13 13:16:09;;;;;;;18.48;6.43;;;;;;;;;;5068390;28;20025;-78
2023/10/13 13:18:35;;;;;;;21.63;7.18;;;;;;;;;;5067958;28;20379;-78
2023/10/13 13:21:06;;;;;;;23.60;7.88;;;;;;;;;;5066939;28;20033;-78
2023/10/13 13:23:32;;;;;;;20.40;7.57;;;;;;;;;;5067351;28;20428;-78
2023/10/13 13:25:58;;;;;;;25.40;7.40;;;;;;;;;;5067762;28;20039;-78
2023/10/13 13:28:24;;;;;;;24.05;6.93;;;;;;;;;;5068108;28;20029;-78
2023/10/13 13:30:50;;;;;;;29.42;8.25;;;;;;;;;;5066137;28;20036;-78
2023/10/13 13:33:23;;;;;;;16.98;6.68;;;;;;;;;;5062840;28;20562;-77
2023/10/13 13:35:49;;;;;;;20.73;6.72;;;;;;;;;;5068636;28;20043;-80
2023/10/13 13:38:31;;;;;;;21.25;6.97;;;;;;;;;;5062997;28;20513;-79
2023/10/13 13:40:57;;;;;;;16.60;7.10;;;;;;;;;;5066237;28;20049;-78
2023/10/13 13:43:40;;;;;;;21.17;7.63;;;;;;;;;;5061111;28;20063;-78
2023/10/13 13:46:10;;;;;;;28.67;8.00;;;;;;;;;;5064012;28;20072;-79
2023/10/13 13:48:38;;;;;;;18.73;6.50;;;;;;;;;;5067112;28;20538;-77
2023/10/13 13:51:05;;;;;;;19.30;7.60;;;;;;;;;;5064445;28;20029;-79
2023/10/13 13:53:34;;;;;;;20.02;7.38;;;;;;;;;;5070668;28;20060;-79
2023/10/13 13:56:04;;;;;;;19.35;6.93;;;;;;;;;;5071196;28;20074;-79
2023/10/13 13:58:30;;;;;;;24.30;7.90;;;;;;;;;;5069913;28;20099;-80
2023/10/13 14:01:12;;;;;;;19.45;6.22;;;;;;;;;;5069481;28;20109;-81
2023/10/13 14:03:45;;;;;;;22.08;7.20;;;;;;;;;;5068662;28;20464;-77
2023/10/13 14:06:24;;;;;;;15.70;6.95;;;;;;;;;;5062564;28;20033;-79
2023/10/13 14:08:51;;;;;;;15.73;6.72;;;;;;;;;;5066893;28;20124;-78
2023/10/13 14:12:25;;;;;;;16.83;6.25;;;;;;;;;;5070821;28;20032;-78
2023/10/13 14:14:28;;;;;;;23.92;6.60;;;;;;;;;;5065714;28;20131;-78
2023/10/13 14:17:02;;;;;;;19.70;6.75;;;;;;;;;;5067709;28;20055;-78
2023/10/13 14:19:28;;;;;;;21.63;6.78;;;;;;;;;;5069078;28;20028;-79
2023/10/13 14:21:55;;;;;;;18.45;6.07;;;;;;;;;;5068653;28;20036;-76
2023/10/13 14:24:33;;;;;;;20.40;5.80;;;;;;;;;;5068185;28;20604;-77
2023/10/13 14:27:07;;;;;;;16.38;5.45;;;;;;;;;;5065312;28;20525;-78
2023/10/13 14:29:33;;;;;;;17.75;5.72;;;;;;;;;;5068512;28;20032;-77
2023/10/13 14:31:59;;;;;;;19.90;5.78;;;;;;;;;;5069410;28;20029;-77
2023/10/13 14:34:26;;;;;;;16.55;6.13;;;;;;;;;;5068468;28;20059;-77
2023/10/13 14:36:54;;;;;;;24.10;6.32;;;;;;;;;;5069787;28;20048;-77
2023/10/13 14:39:21;;;;;;;15.68;5.63;;;;;;;;;;5066592;28;20115;-77
2023/10/13 14:41:47;;;;;;;27.17;7.32;;;;;;;;;;5069396;28;20079;-77
2023/10/13 14:44:14;;;;;;;26.02;6.93;;;;;;;;;;5066115;28;20107;-79
2023/10/13 14:46:40;;;;;;;22.17;6.43;;;;;;;;;;5056450;28;20059;-77
2023/10/13 14:49:07;;;;;;;23.17;6.45;;;;;;;;;;5065911;28;20037;-77
2023/10/13 14:51:33;;;;;;;22.42;6.20;;;;;;;;;;5065441;28;20016;-77
2023/10/13 14:53:59;;;;;;;15.93;6.60;;;;;;;;;;5067197;28;20025;-76
2023/10/13 14:56:26;;;;;;;22.20;5.78;;;;;;;;;;5067126;28;20043;-76
2023/10/13 14:58:53;;;;;;;16.50;6.05;;;;;;;;;;5065430;28;20033;-75
2023/10/13 15:01:20;;;;;;;18.85;5.38;;;;;;;;;;5064217;28;20487;-78
2023/10/13 15:03:47;;;;;;;20.77;5.38;;;;;;;;;;5065689;28;20494;-77
2023/10/13 15:06:29;;;;;;;20.48;5.45;;;;;;;;;;5070226;28;20032;-78
2023/10/13 15:08:56;;;;;;;18.45;6.28;;;;;;;;;;5066007;28;20036;-77
2023/10/13 15:11:26;;;;;;;23.42;6.80;;;;;;;;;;5052182;28;20535;-78
2023/10/13 15:13:53;;;;;;;23.00;7.53;;;;;;;;;;5064648;28;20032;-78
2023/10/13 15:16:23;;;;;;;20.90;5.88;;;;;;;;;;5066732;28;20064;-80
2023/10/13 15:18:52;;;;;;;16.83;5.85;;;;;;;;;;5064747;28;20086;-78
2023/10/13 15:21:32;;;;;;;18.35;6.25;;;;;;;;;;5062677;28;20119;-77
2023/10/13 15:24:03;;;;;;;24.90;6.07;;;;;;;;;;5064499;28;20029;-81
2023/10/13 15:26:29;;;;;;;19.52;6.47;;;;;;;;;;5075413;28;20506;-79
2023/10/13 15:28:55;;;;;;;25.52;6.18;;;;;;;;;;5070199;28;20037;-77
2023/10/13 15:34:06;;;;;;;21.90;5.18;;;;;;;;;;5067153;28;20085;-77
2023/10/13 15:36:33;;;;;;;20.70;6.57;;;;;;;;;;5066461;28;20033;-78
2023/10/13 15:39:00;;;;;;;21.00;6.03;;;;;;;;;;5068333;28;20032;-79
2023/10/13 15:41:27;;;;;;;19.35;6.55;;;;;;;;;;5066029;28;20044;-76
2023/10/13 15:43:54;;;;;;;20.67;6.20;;;;;;;;;;5068444;28;20036;-76
2023/10/13 15:46:21;;;;;;;23.92;7.07;;;;;;;;;;5065139;28;20035;-75
2023/10/13 15:48:53;;;;;;;19.80;6.25;;;;;;;;;;5059881;28;20421;-79
2023/10/13 15:51:21;;;;;;;21.60;6.80;;;;;;;;;;5080732;28;20021;-75
2023/10/13 15:53:51;;;;;;;18.27;7.32;;;;;;;;;;5075963;28;20118;-75
2023/10/13 15:56:19;;;;;;;23.83;7.07;;;;;;;;;;5070208;28;20452;-75
2023/10/13 15:58:45;;;;;;;21.90;6.88;;;;;;;;;;5066943;28;20386;-75
2023/10/13 16:01:15;;;;;;;20.25;6.82;;;;;;;;;;5066829;28;20398;-75
2023/10/13 16:03:49;;;;;;;27.15;9.02;;;;;;;;;;5070055;28;20078;-74
2023/10/13 16:06:16;;;;;;;21.23;6.93;;;;;;;;;;5068177;28;20083;-75
2023/10/13 16:08:42;;;;;;;18.83;7.25;;;;;;;;;;5069149;28;20064;-76
2023/10/13 16:11:13;;;;;;;17.90;5.72;;;;;;;;;;5063714;28;20578;-74
2023/10/13 16:13:39;;;;;;;18.90;5.60;;;;;;;;;;5071041;28;20036;-74
2023/10/13 16:16:05;;;;;;;19.00;5.72;;;;;;;;;;5071343;28;20045;-73
2023/10/13 16:18:35;;;;;;;18.55;7.38;;;;;;;;;;5069488;28;20475;-75
2023/10/13 16:21:04;;;;;;;19.42;5.65;;;;;;;;;;5067532;28;20029;-76
2023/10/13 16:23:31;;;;;;;16.40;5.63;;;;;;;;;;5070642;28;20036;-77
2023/10/13 16:26:01;;;;;;;19.67;5.45;;;;;;;;;;5069586;28;20111;-74
2023/10/13 16:28:27;;;;;;;19.00;4.72;;;;;;;;;;5067667;28;20120;-75
2023/10/13 16:30:53;;;;;;;16.80;4.30;;;;;;;;;;5071932;28;20033;-73
2023/10/13 16:33:20;;;;;;;17.52;6.00;;;;;;;;;;5071208;28;20056;-73
2023/10/13 16:35:46;;;;;;;11.82;4.40;;;;;;;;;;5074031;28;20033;-74
2023/10/13 16:38:12;;;;;;;25.70;5.78;;;;;;;;;;5072706;28;20031;-74
2023/10/13 16:40:41;;;;;;;20.67;4.97;;;;;;;;;;5073955;28;20049;-74
2023/10/13 16:43:07;;;;;;;12.52;4.28;;;;;;;;;;5073901;28;20033;-75
2023/10/13 16:45:37;;;;;;;22.50;4.78;;;;;;;;;;5070457;28;20096;-75
2023/10/13 16:48:05;;;;;;;12.63;4.20;;;;;;;;;;5073753;28;20497;-75
2023/10/13 16:50:37;;;;;;;14.63;4.72;;;;;;;;;;5061367;28;20013;-78
2023/10/13 16:53:06;;;;;;;13.90;3.58;;;;;;;;;;5057028;28;20029;-75
2023/10/13 16:55:32;;;;;;;17.30;4.15;;;;;;;;;;5073671;28;20060;-79
2023/10/13 16:57:58;;;;;;;14.15;4.03;;;;;;;;;;5073627;28;20025;-75
2023/10/13 17:00:27;;;;;;;14.38;4.13;;;;;;;;;;5065545;28;20135;-76
2023/10/13 17:02:54;;;;;;;20.23;5.38;;;;;;;;;;5072528;28;20123;-79
2023/10/13 17:05:20;;;;;;;17.48;4.20;;;;;;;;;;5059992;28;20021;-75
2023/10/13 17:07:46;;;;;;;15.88;4.53;;;;;;;;;;5055176;28;20037;-74
2023/10/13 17:10:14;;;;;;;17.13;4.78;;;;;;;;;;5059680;28;20024;-77
2023/10/13 17:12:40;;;;;;;18.58;4.93;;;;;;;;;;5055881;28;20086;-74
2023/10/13 17:15:13;;;;;;;18.83;5.82;;;;;;;;;;5053830;28;20033;-75
2023/10/13 17:17:44;;;;;;;15.52;4.45;;;;;;;;;;5073288;28;20039;-76
2023/10/13 17:20:10;;;;;;;19.17;5.35;;;;;;;;;;5073192;28;20024;-75
2023/10/13 17:22:36;;;;;;;16.90;4.90;;;;;;;;;;5066624;28;20087;-75
2023/10/13 17:25:03;;;;;;;21.08;6.68;;;;;;;;;;5074057;28;20054;-74
2023/10/13 17:27:32;;;;;;;16.77;5.18;;;;;;;;;;5070277;28;20036;-75
2023/10/13 17:29:59;;;;;;;19.90;5.57;;;;;;;;;;5070957;28;20397;-74
2023/10/13 17:32:25;;;;;;;14.23;5.35;;;;;;;;;;5070049;28;20029;-76
2023/10/13 17:34:51;;;;;;;16.50;5.47;;;;;;;;;;5074212;28;20041;-74
2023/10/13 17:37:17;;;;;;;17.77;5.95;;;;;;;;;;5071560;28;20047;-76
2023/10/13 17:39:44;;;;;;;18.58;6.05;;;;;;;;;;5073202;28;20052;-75
2023/10/13 17:42:13;;;;;;;22.67;6.55;;;;;;;;;;5072854;28;20025;-74
2023/10/13 17:44:39;;;;;;;23.15;6.10;;;;;;;;;;5071731;28;20058;-75
2023/10/13 17:47:10;;;;;;;19.48;5.72;;;;;;;;;;5068744;28;20086;-75
2023/10/13 17:49:39;;;;;;;22.35;6.15;;;;;;;;;;5071961;28;20024;-75
2023/10/13 17:52:07;;;;;;;16.38;5.30;;;;;;;;;;5073318;28;20083;-76
2023/10/13 17:54:33;;;;;;;22.95;6.70;;;;;;;;;;5061630;28;20052;-76
2023/10/13 17:57:00;;;;;;;21.98;5.55;;;;;;;;;;5068750;28;20044;-76
2023/10/13 17:59:26;;;;;;;18.50;5.43;;;;;;;;;;5072957;28;20029;-75
2023/10/13 18:01:53;;;;;;;19.20;5.90;;;;;;;;;;5072002;28;20029;-76